createdAt,value
2022-10-23T00:01:40.402Z,100.00
2022-10-23T00:04:17.268Z,100.00
2022-10-23T00:06:43.804Z,100.00
2022-10-23T00:09:12.518Z,100.00
2022-10-23T00:11:39.097Z,100.00
2022-10-23T00:14:07.319Z,100.00
2022-10-23T00:16:33.998Z,100.00
2022-10-23T00:19:00.317Z,100.00
2022-10-23T00:21:27.116Z,100.00
2022-10-23T00:23:53.490Z,100.00
2022-10-23T00:26:19.886Z,100.00
2022-10-23T00:28:50.373Z,100.00
2022-10-23T00:31:17.301Z,100.00
2022-10-23T00:33:43.715Z,100.00
2022-10-23T00:36:11.554Z,100.00
2022-10-23T00:38:38.222Z,100.00
2022-10-23T00:41:05.466Z,100.00
2022-10-23T00:43:31.964Z,100.00
2022-10-23T00:45:58.684Z,100.00
2022-10-23T00:48:25.897Z,100.00
2022-10-23T00:50:52.400Z,100.00
2022-10-23T00:53:19.639Z,100.00
2022-10-23T00:55:47.279Z,100.00
2022-10-23T00:58:14.683Z,100.00
2022-10-23T01:00:44.008Z,100.00
2022-10-23T01:03:10.380Z,100.00
2022-10-23T01:09:17.543Z,100.00
2022-10-23T01:11:43.952Z,100.00
2022-10-23T01:14:13.319Z,100.00
2022-10-23T01:16:48.235Z,100.00
2022-10-23T01:19:25.257Z,100.00
2022-10-23T01:22:11.857Z,100.00
2022-10-23T01:24:51.047Z,100.00
2022-10-23T01:27:17.519Z,100.00
2022-10-23T01:29:46.803Z,100.00
2022-10-23T01:32:15.810Z,100.00
2022-10-23T01:34:51.776Z,100.00
2022-10-23T01:37:29.759Z,100.00
2022-10-23T01:40:00.754Z,100.00
2022-10-23T01:42:33.957Z,100.00
2022-10-23T01:45:06.823Z,100.00
2022-10-23T01:47:35.106Z,100.00
2022-10-23T01:50:02.512Z,100.00
2022-10-23T01:52:28.957Z,100.00
2022-10-23T01:54:58.044Z,100.00
2022-10-23T01:57:26.145Z,100.00
2022-10-23T02:00:05.727Z,100.00
2022-10-23T02:02:33.897Z,100.00
2022-10-23T02:05:00.346Z,100.00
2022-10-23T02:07:26.970Z,100.00
2022-10-23T02:09:53.478Z,100.00
2022-10-23T02:12:28.718Z,100.00
2022-10-23T02:14:58.733Z,100.00
2022-10-23T02:17:45.429Z,100.00
2022-10-23T02:20:20.957Z,100.00
2022-10-23T02:22:56.764Z,100.00
2022-10-23T02:25:27.875Z,100.00
2022-10-23T02:27:56.856Z,100.00
2022-10-23T02:30:23.174Z,100.00
2022-10-23T02:32:51.543Z,100.00
2022-10-23T02:35:19.469Z,100.00
2022-10-23T02:37:55.399Z,100.00
2022-10-23T02:40:23.900Z,100.00
2022-10-23T02:42:57.580Z,100.00
2022-10-23T02:45:27.062Z,100.00
2022-10-23T02:47:53.538Z,100.00
2022-10-23T02:50:23.096Z,100.00
2022-10-23T02:52:58.309Z,100.00
2022-10-23T02:55:33.791Z,100.00
2022-10-23T02:58:11.571Z,100.00
2022-10-23T03:00:39.710Z,100.00
2022-10-23T03:03:08.857Z,100.00
2022-10-23T03:05:38.067Z,100.00
2022-10-23T03:08:05.999Z,100.00
2022-10-23T03:10:32.327Z,100.00
2022-10-23T03:12:58.650Z,100.00
2022-10-23T03:15:25.072Z,100.00
2022-10-23T03:17:51.501Z,100.00
2022-10-23T03:20:17.980Z,100.00
2022-10-23T03:22:44.825Z,100.00
2022-10-23T03:25:11.514Z,100.00
2022-10-23T03:27:37.824Z,100.00
2022-10-23T03:30:04.704Z,100.00
2022-10-23T03:32:31.160Z,100.00
2022-10-23T03:34:57.556Z,100.00
2022-10-23T03:37:24.111Z,100.00
2022-10-23T03:39:50.900Z,100.00
2022-10-23T03:42:17.689Z,100.00
2022-10-23T03:44:44.135Z,100.00
2022-10-23T03:47:11.908Z,100.00
2022-10-23T03:49:39.025Z,100.00
2022-10-23T03:52:05.578Z,100.00
2022-10-23T03:54:32.293Z,100.00
2022-10-23T03:56:58.750Z,100.00
2022-10-23T03:59:25.585Z,100.00
2022-10-23T04:01:52.096Z,100.00
2022-10-23T04:04:18.699Z,100.00
2022-10-23T04:06:45.142Z,100.00
2022-10-23T04:11:39.090Z,100.00
2022-10-23T04:14:05.443Z,100.00
2022-10-23T04:16:31.802Z,100.00
2022-10-23T04:18:58.144Z,100.00
2022-10-23T04:21:24.578Z,100.00
2022-10-23T04:23:51.007Z,100.00
2022-10-23T04:26:17.334Z,100.00
2022-10-23T04:28:43.742Z,100.00
2022-10-23T04:31:10.170Z,100.00
2022-10-23T04:33:36.937Z,100.00
2022-10-23T04:36:03.439Z,100.00
2022-10-23T04:38:29.822Z,100.00
2022-10-23T04:40:58.223Z,100.00
2022-10-23T04:43:24.625Z,100.00
2022-10-23T04:45:50.973Z,100.00
2022-10-23T04:48:17.400Z,100.00
2022-10-23T04:50:43.726Z,100.00
2022-10-23T04:53:10.032Z,100.00
2022-10-23T04:55:36.482Z,100.00
2022-10-23T04:58:02.802Z,100.00
2022-10-23T05:00:29.294Z,100.00
2022-10-23T05:02:55.987Z,100.00
2022-10-23T05:05:22.326Z,100.00
2022-10-23T05:07:48.752Z,100.00
2022-10-23T05:10:15.097Z,100.00
2022-10-23T05:12:41.431Z,100.00
2022-10-23T05:15:07.902Z,100.00
2022-10-23T05:17:35.403Z,100.00
2022-10-23T05:20:03.739Z,100.00
2022-10-23T05:22:32.713Z,100.00
2022-10-23T05:25:01.880Z,100.00
2022-10-23T05:27:28.213Z,100.00
2022-10-23T05:29:54.584Z,100.00
2022-10-23T05:34:53.236Z,100.00
2022-10-23T05:37:19.670Z,100.00
2022-10-23T05:39:46.117Z,100.00
2022-10-23T05:42:12.523Z,100.00
2022-10-23T05:44:38.965Z,100.00
2022-10-23T05:47:05.274Z,100.00
2022-10-23T05:49:31.651Z,100.00
2022-10-23T05:51:57.969Z,100.00
2022-10-23T05:54:24.329Z,100.00
2022-10-23T05:56:51.805Z,100.00
2022-10-23T05:59:20.512Z,100.00
2022-10-23T06:01:49.429Z,100.00
2022-10-23T06:04:15.815Z,100.00
2022-10-23T06:06:42.121Z,100.00
2022-10-23T06:09:09.501Z,100.00
2022-10-23T06:11:35.873Z,100.00
2022-10-23T06:14:02.266Z,100.00
2022-10-23T06:16:28.669Z,100.00
2022-10-23T06:18:55.216Z,100.00
2022-10-23T06:21:21.781Z,100.00
2022-10-23T06:23:48.326Z,100.00
2022-10-23T06:26:15.552Z,100.00
2022-10-23T06:28:41.934Z,100.00
2022-10-23T06:31:09.447Z,100.00
2022-10-23T06:33:35.819Z,100.00
2022-10-23T06:36:03.604Z,100.00
2022-10-23T06:38:30.083Z,100.00
2022-10-23T06:40:56.646Z,100.00
2022-10-23T06:43:23.081Z,100.00
2022-10-23T06:45:49.532Z,100.00
2022-10-23T06:48:15.946Z,100.00
2022-10-23T06:50:42.362Z,100.00
2022-10-23T06:53:09.736Z,100.00
2022-10-23T06:58:04.592Z,100.00
2022-10-23T07:00:31.092Z,100.00
2022-10-23T07:02:57.753Z,100.00
2022-10-23T07:05:24.092Z,100.00
2022-10-23T07:07:51.650Z,100.00
2022-10-23T07:10:18.107Z,100.00
2022-10-23T07:12:45.318Z,100.00
2022-10-23T07:15:11.990Z,100.00
2022-10-23T07:17:38.516Z,100.00
2022-10-23T07:20:05.061Z,100.00
2022-10-23T07:22:31.552Z,100.00
2022-10-23T07:24:58.086Z,100.00
2022-10-23T07:27:24.527Z,100.00
2022-10-23T07:29:51.460Z,100.00
2022-10-23T07:32:17.900Z,100.00
2022-10-23T07:34:44.406Z,100.00
2022-10-23T07:37:10.788Z,100.00
2022-10-23T07:39:37.315Z,100.00
2022-10-23T07:42:03.949Z,100.00
2022-10-23T07:44:30.376Z,100.00
2022-10-23T07:46:57.008Z,100.00
2022-10-23T07:49:23.442Z,100.00
2022-10-23T07:51:51.457Z,100.00
2022-10-23T07:54:18.149Z,100.00
2022-10-23T07:56:44.826Z,100.00
2022-10-23T07:59:14.072Z,100.00
2022-10-23T08:01:42.535Z,100.00
2022-10-23T08:04:09.337Z,100.00
2022-10-23T08:06:36.039Z,100.00
2022-10-23T08:09:05.487Z,100.00
2022-10-23T08:11:35.503Z,100.00
2022-10-23T08:14:08.165Z,100.00
2022-10-23T08:16:35.812Z,100.00
2022-10-23T08:19:02.440Z,100.00
2022-10-23T08:21:29.461Z,100.00
2022-10-23T08:23:56.723Z,100.00
2022-10-23T08:26:24.603Z,100.00
2022-10-23T08:28:51.567Z,100.00
2022-10-23T08:31:18.837Z,100.00
2022-10-23T08:33:45.413Z,100.00
2022-10-23T08:36:17.789Z,100.00
2022-10-23T08:38:44.219Z,100.00
2022-10-23T08:41:32.344Z,100.00
2022-10-23T08:44:12.722Z,100.00
2022-10-23T08:46:41.958Z,100.00
2022-10-23T08:49:17.697Z,100.00
2022-10-23T08:51:49.193Z,100.00
2022-10-23T08:54:20.938Z,100.00
2022-10-23T08:56:49.790Z,100.00
2022-10-23T08:59:39.658Z,100.00
2022-10-23T09:02:06.217Z,100.00
2022-10-23T09:04:32.809Z,100.00
2022-10-23T09:09:54.367Z,100.00
2022-10-23T09:12:22.258Z,99.43
2022-10-23T09:15:07.463Z,100.00
2022-10-23T09:17:35.046Z,99.60
2022-10-23T09:20:19.286Z,95.25
2022-10-23T09:22:46.745Z,88.57
2022-10-23T09:25:18.313Z,87.41
2022-10-23T09:27:53.198Z,92.71
2022-10-23T09:30:48.700Z,89.01
2022-10-23T09:33:24.433Z,92.16
2022-10-23T09:36:01.838Z,86.76
2022-10-23T09:38:28.207Z,88.95
2022-10-23T09:40:54.792Z,88.68
2022-10-23T09:43:27.426Z,84.95
2022-10-23T09:46:01.396Z,89.89
2022-10-23T09:48:27.708Z,88.68
2022-10-23T09:50:58.671Z,85.27
2022-10-23T09:53:37.041Z,84.71
2022-10-23T09:56:07.764Z,91.20
2022-10-23T09:58:40.094Z,87.01
2022-10-23T10:01:06.624Z,91.34
2022-10-23T10:03:33.119Z,87.75
2022-10-23T10:06:04.698Z,82.90
2022-10-23T10:08:37.348Z,87.11
2022-10-23T10:11:22.837Z,89.28
2022-10-23T10:14:01.355Z,85.13
2022-10-23T10:16:34.163Z,92.92
2022-10-23T10:19:04.619Z,91.85
2022-10-23T10:21:43.800Z,88.06
2022-10-23T10:24:18.462Z,89.32
2022-10-23T10:27:06.124Z,85.79
2022-10-23T10:29:51.216Z,82.36
2022-10-23T10:32:32.222Z,78.96
2022-10-23T10:35:04.443Z,77.01
2022-10-23T10:37:49.713Z,76.54
2022-10-23T10:40:22.490Z,77.76
2022-10-23T10:43:06.330Z,83.03
2022-10-23T10:45:46.893Z,84.65
2022-10-23T10:48:19.425Z,79.31
2022-10-23T10:50:52.778Z,81.71
2022-10-23T10:53:23.566Z,82.47
2022-10-23T10:55:55.519Z,78.92
2022-10-23T10:58:26.143Z,82.30
2022-10-23T11:01:03.356Z,81.27
2022-10-23T11:03:51.906Z,84.94
2022-10-23T11:06:20.382Z,84.76
2022-10-23T11:08:57.375Z,84.50
2022-10-23T11:11:25.155Z,88.09
2022-10-23T11:13:53.164Z,78.17
2022-10-23T11:16:25.770Z,81.29
2022-10-23T11:19:14.155Z,79.33
2022-10-23T11:22:02.106Z,85.28
2022-10-23T11:24:49.449Z,82.40
2022-10-23T11:27:27.459Z,86.23
2022-10-23T11:30:12.523Z,82.46
2022-10-23T11:32:38.914Z,81.72
2022-10-23T11:35:10.154Z,79.54
2022-10-23T11:37:36.623Z,75.98
2022-10-23T11:40:18.135Z,73.58
2022-10-23T11:42:47.371Z,73.73
2022-10-23T11:45:25.801Z,74.26
2022-10-23T11:48:02.627Z,75.48
2022-10-23T11:50:33.567Z,69.06
2022-10-23T11:53:20.909Z,69.66
2022-10-23T11:56:05.569Z,69.70
2022-10-23T11:58:48.751Z,67.13
2022-10-23T12:01:33.842Z,72.25
2022-10-23T12:04:12.868Z,69.21
2022-10-23T12:06:41.543Z,70.80
2022-10-23T12:09:22.138Z,66.06
2022-10-23T12:12:24.185Z,66.71
2022-10-23T12:14:51.215Z,67.68
2022-10-23T12:17:37.897Z,67.79
2022-10-23T12:20:04.279Z,71.89
2022-10-23T12:22:37.367Z,71.28
2022-10-23T12:25:13.850Z,69.61
2022-10-23T12:27:43.549Z,70.21
2022-10-23T12:30:19.528Z,71.44
2022-10-23T12:33:09.153Z,72.14
2022-10-23T12:35:54.020Z,68.50
2022-10-23T12:38:23.266Z,69.75
2022-10-23T12:41:00.956Z,71.49
2022-10-23T12:43:30.281Z,71.49
2022-10-23T12:46:00.952Z,72.63
2022-10-23T12:48:27.593Z,67.32
2022-10-23T12:50:56.255Z,66.88
2022-10-23T12:53:23.366Z,68.83
2022-10-23T12:55:49.870Z,69.74
2022-10-23T12:58:23.700Z,67.45
2022-10-23T13:00:51.464Z,68.19
2022-10-23T13:03:20.200Z,66.63
2022-10-23T13:05:46.868Z,68.02
2022-10-23T13:08:14.389Z,70.00
2022-10-23T13:10:41.704Z,67.41
2022-10-23T13:13:08.618Z,66.29
2022-10-23T13:15:43.149Z,65.67
2022-10-23T13:18:10.506Z,67.61
2022-10-23T13:20:38.580Z,67.95
2022-10-23T13:23:11.077Z,68.86
2022-10-23T13:25:39.729Z,72.12
2022-10-23T13:28:13.327Z,73.31
2022-10-23T13:30:42.666Z,73.07
2022-10-23T13:33:23.000Z,72.96
2022-10-23T13:35:57.186Z,72.42
2022-10-23T13:38:31.072Z,71.07
2022-10-23T13:41:01.497Z,66.86
2022-10-23T13:43:30.641Z,67.27
2022-10-23T13:45:57.970Z,66.37
2022-10-23T13:48:24.605Z,64.07
2022-10-23T13:50:51.028Z,70.05
2022-10-23T13:53:17.677Z,72.83
2022-10-23T13:55:45.225Z,74.34
2022-10-23T13:58:11.596Z,75.70
2022-10-23T14:00:38.503Z,76.48
2022-10-23T14:03:04.866Z,76.50
2022-10-23T14:05:31.303Z,76.50
2022-10-23T14:07:57.706Z,80.39
2022-10-23T14:10:26.910Z,78.78
2022-10-23T14:12:55.016Z,80.52
2022-10-23T14:15:21.870Z,81.43
2022-10-23T14:17:48.315Z,80.53
2022-10-23T14:20:16.371Z,80.54
2022-10-23T14:22:44.955Z,80.13
2022-10-23T14:25:11.732Z,80.53
2022-10-23T14:27:38.069Z,79.84
2022-10-23T14:30:04.847Z,79.87
2022-10-23T14:32:31.498Z,81.05
2022-10-23T14:34:57.874Z,82.01
2022-10-23T14:37:24.288Z,83.04
2022-10-23T14:39:50.619Z,85.65
2022-10-23T14:42:17.377Z,86.35
2022-10-23T14:44:43.969Z,86.48
2022-10-23T14:47:10.370Z,86.35
2022-10-23T14:49:40.010Z,85.07
2022-10-23T14:52:06.832Z,84.14
2022-10-23T14:54:35.145Z,83.73
2022-10-23T14:57:01.651Z,83.93
2022-10-23T14:59:28.111Z,81.73
2022-10-23T15:04:21.144Z,86.00
2022-10-23T15:06:47.473Z,90.85
2022-10-23T15:09:15.883Z,93.79
2022-10-23T15:11:42.732Z,93.45
2022-10-23T15:14:09.349Z,95.61
2022-10-23T15:16:41.379Z,98.83
2022-10-23T15:19:13.630Z,99.58
2022-10-23T15:21:43.832Z,100.00
2022-10-23T15:24:10.236Z,100.00
2022-10-23T15:26:38.260Z,100.00
2022-10-23T15:29:05.385Z,100.00
2022-10-23T15:31:41.958Z,100.00
2022-10-23T15:34:27.229Z,100.00
2022-10-23T15:36:54.702Z,100.00
2022-10-23T15:39:22.496Z,100.00
2022-10-23T15:41:51.148Z,100.00
2022-10-23T15:44:18.545Z,100.00
2022-10-23T15:46:44.953Z,100.00
2022-10-23T15:49:11.665Z,100.00
2022-10-23T15:51:38.945Z,100.00
2022-10-23T15:54:06.243Z,100.00
2022-10-23T15:56:32.840Z,100.00
2022-10-23T15:59:01.619Z,100.00
2022-10-23T16:01:29.162Z,100.00
2022-10-23T16:03:56.883Z,100.00
2022-10-23T16:06:23.452Z,100.00
2022-10-23T16:08:49.836Z,100.00
2022-10-23T16:11:18.256Z,100.00
2022-10-23T16:13:47.799Z,100.00
2022-10-23T16:16:14.547Z,100.00
2022-10-23T16:18:40.993Z,100.00
2022-10-23T16:21:07.867Z,100.00
2022-10-23T16:23:34.487Z,100.00
2022-10-23T16:26:05.102Z,100.00
2022-10-23T16:28:31.580Z,100.00
2022-10-23T16:30:57.986Z,100.00
2022-10-23T16:33:24.371Z,100.00
2022-10-23T16:35:50.826Z,100.00
2022-10-23T16:38:17.311Z,100.00
2022-10-23T16:40:50.332Z,100.00
2022-10-23T16:43:16.637Z,100.00
2022-10-23T16:45:42.991Z,100.00
2022-10-23T16:48:09.439Z,100.00
2022-10-23T16:50:41.020Z,100.00
2022-10-23T16:53:07.751Z,100.00
2022-10-23T16:55:34.165Z,100.00
2022-10-23T16:58:00.635Z,100.00
2022-10-23T17:00:34.865Z,100.00
2022-10-23T17:03:04.698Z,100.00
2022-10-23T17:05:34.785Z,100.00
2022-10-23T17:08:01.188Z,100.00
2022-10-23T17:10:27.778Z,100.00
2022-10-23T17:12:54.106Z,100.00
2022-10-23T17:15:20.904Z,100.00
2022-10-23T17:17:48.358Z,100.00
2022-10-23T17:20:14.790Z,100.00
2022-10-23T17:22:41.159Z,100.00
2022-10-23T17:25:07.978Z,100.00
2022-10-23T17:27:34.312Z,100.00
2022-10-23T17:30:00.638Z,100.00
2022-10-23T17:32:27.060Z,100.00
2022-10-23T17:34:54.466Z,100.00
2022-10-23T17:37:20.882Z,100.00
2022-10-23T17:39:47.200Z,100.00
2022-10-23T17:42:13.632Z,100.00
2022-10-23T17:44:39.964Z,100.00
2022-10-23T17:47:06.271Z,100.00
2022-10-23T17:49:32.668Z,100.00
2022-10-23T17:51:59.099Z,100.00
2022-10-23T17:54:26.692Z,100.00
2022-10-23T17:56:53.034Z,100.00
2022-10-23T17:59:19.745Z,100.00
2022-10-23T18:01:48.075Z,100.00
2022-10-23T18:04:15.607Z,100.00
2022-10-23T18:06:47.368Z,100.00
2022-10-23T18:09:13.800Z,100.00
2022-10-23T18:11:45.253Z,100.00
2022-10-23T18:14:13.339Z,100.00
2022-10-23T18:16:40.458Z,100.00
2022-10-23T18:19:07.021Z,100.00
2022-10-23T18:21:33.403Z,100.00
2022-10-23T18:24:00.153Z,100.00
2022-10-23T18:26:28.103Z,100.00
2022-10-23T18:28:58.647Z,100.00
2022-10-23T18:31:27.119Z,100.00
2022-10-23T18:33:57.566Z,100.00
2022-10-23T18:36:26.690Z,100.00
2022-10-23T18:38:53.161Z,100.00
2022-10-23T18:41:19.868Z,100.00
2022-10-23T18:43:46.310Z,100.00
2022-10-23T18:46:13.061Z,100.00
2022-10-23T18:48:39.669Z,100.00
2022-10-23T18:51:15.601Z,100.00
2022-10-23T18:53:42.497Z,100.00
2022-10-23T18:56:08.890Z,100.00
2022-10-23T18:58:35.244Z,100.00
2022-10-23T19:01:02.528Z,100.00
2022-10-23T19:03:29.122Z,100.00
2022-10-23T19:05:56.608Z,100.00
2022-10-23T19:08:22.927Z,100.00
2022-10-23T19:10:50.197Z,100.00
2022-10-23T19:13:17.100Z,100.00
2022-10-23T19:15:43.653Z,100.00
2022-10-23T19:18:10.491Z,100.00
2022-10-23T19:20:41.405Z,100.00
2022-10-23T19:23:07.835Z,100.00
2022-10-23T19:25:34.931Z,100.00
2022-10-23T19:28:02.021Z,100.00
2022-10-23T19:30:28.553Z,100.00
2022-10-23T19:32:54.924Z,100.00
2022-10-23T19:35:21.563Z,100.00
2022-10-23T19:37:47.937Z,100.00
2022-10-23T19:40:14.628Z,100.00
2022-10-23T19:42:41.882Z,100.00
2022-10-23T19:45:12.347Z,100.00
2022-10-23T19:47:39.150Z,100.00
2022-10-23T19:50:06.712Z,100.00
2022-10-23T19:52:34.489Z,100.00
2022-10-23T19:55:01.357Z,100.00
2022-10-23T19:57:30.375Z,100.00
2022-10-23T19:59:56.768Z,100.00
2022-10-23T20:02:23.253Z,100.00
2022-10-23T20:04:50.932Z,100.00
2022-10-23T20:07:17.375Z,100.00
2022-10-23T20:09:43.778Z,100.00
2022-10-23T20:12:11.173Z,100.00
2022-10-23T20:14:37.499Z,100.00
2022-10-23T20:17:05.084Z,100.00
2022-10-23T20:19:31.445Z,100.00
2022-10-23T20:21:57.840Z,100.00
2022-10-23T20:24:24.146Z,100.00
2022-10-23T20:26:52.320Z,100.00
2022-10-23T20:29:18.949Z,100.00
2022-10-23T20:31:45.330Z,100.00
2022-10-23T20:34:12.291Z,100.00
2022-10-23T20:36:45.423Z,100.00
2022-10-23T20:39:15.587Z,100.00
2022-10-23T20:41:42.164Z,100.00
2022-10-23T20:44:10.731Z,100.00
2022-10-23T20:46:37.137Z,100.00
2022-10-23T20:49:03.811Z,100.00
2022-10-23T20:51:30.230Z,100.00
2022-10-23T20:53:56.540Z,100.00
2022-10-23T20:56:24.257Z,100.00
2022-10-23T20:58:50.713Z,100.00
2022-10-23T21:01:17.847Z,100.00
2022-10-23T21:03:49.213Z,100.00
2022-10-23T21:06:16.267Z,100.00
2022-10-23T21:08:42.574Z,100.00
2022-10-23T21:11:12.791Z,100.00
2022-10-23T21:13:40.080Z,100.00
2022-10-23T21:16:13.869Z,100.00
2022-10-23T21:18:45.970Z,100.00
2022-10-23T21:21:13.966Z,100.00
2022-10-23T21:23:40.981Z,100.00
2022-10-23T21:26:07.970Z,100.00
2022-10-23T21:28:34.821Z,100.00
2022-10-23T21:31:09.783Z,100.00
2022-10-23T21:33:36.820Z,100.00
2022-10-23T21:36:18.725Z,100.00
2022-10-23T21:38:45.825Z,100.00
2022-10-23T21:41:13.812Z,100.00
2022-10-23T21:43:40.128Z,100.00
2022-10-23T21:46:09.406Z,100.00
2022-10-23T21:48:35.754Z,100.00
2022-10-23T21:51:02.214Z,100.00
2022-10-23T21:53:28.946Z,100.00
2022-10-23T21:55:56.073Z,100.00
2022-10-23T21:58:22.446Z,100.00
2022-10-23T22:00:48.861Z,100.00
2022-10-23T22:03:15.175Z,100.00
2022-10-23T22:05:41.590Z,100.00
2022-10-23T22:08:07.920Z,100.00
2022-10-23T22:10:35.340Z,100.00
2022-10-23T22:13:01.664Z,100.00
2022-10-23T22:15:28.120Z,100.00
2022-10-23T22:17:54.506Z,100.00
2022-10-23T22:20:20.850Z,100.00
2022-10-23T22:22:47.166Z,100.00
2022-10-23T22:25:13.531Z,100.00
2022-10-23T22:27:41.036Z,100.00
2022-10-23T22:30:07.557Z,100.00
2022-10-23T22:32:34.856Z,100.00
2022-10-23T22:35:01.192Z,100.00
2022-10-23T22:37:27.506Z,100.00
2022-10-23T22:39:53.847Z,100.00
2022-10-23T22:42:20.342Z,100.00
2022-10-23T22:44:46.726Z,100.00
2022-10-23T22:47:13.147Z,100.00
2022-10-23T22:49:39.730Z,100.00
2022-10-23T22:52:06.124Z,100.00
2022-10-23T22:54:32.498Z,100.00
2022-10-23T22:56:58.962Z,100.00
2022-10-23T22:59:25.277Z,100.00
2022-10-23T23:01:52.794Z,100.00
2022-10-23T23:04:37.232Z,100.00
2022-10-23T23:07:04.524Z,100.00
2022-10-23T23:09:31.882Z,100.00
2022-10-23T23:11:58.470Z,100.00
2022-10-23T23:14:24.843Z,100.00
2022-10-23T23:16:51.846Z,100.00
2022-10-23T23:19:18.320Z,100.00
2022-10-23T23:21:44.696Z,100.00
2022-10-23T23:24:12.127Z,100.00
2022-10-23T23:26:38.687Z,100.00
2022-10-23T23:29:05.033Z,100.00
2022-10-23T23:31:31.479Z,100.00
2022-10-23T23:33:57.817Z,100.00
2022-10-23T23:36:25.310Z,100.00
2022-10-23T23:38:52.306Z,100.00
2022-10-23T23:41:20.061Z,100.00
2022-10-23T23:43:46.690Z,100.00
2022-10-23T23:46:13.388Z,100.00
2022-10-23T23:48:40.328Z,100.00
2022-10-23T23:51:06.651Z,100.00
2022-10-23T23:53:32.972Z,100.00
2022-10-23T23:55:59.565Z,100.00
2022-10-23T23:58:25.903Z,100.00
